Time;durP1;ratioP1;P1;durP2;ratioP2;P2;SDS_P1;SDS_P2;PMS_P1;PMS_P2;Temp;Humidity;BMP_temperature;BMP_pressure;BME280_temperature;BME280_humidity;BME280_pressure;Samples;Min_cycle;Max_cycle;Signal;HPM_P1;HPM_P2
2022/04/04 00:00:12;;;;;;;1.30;1.30;;;;;;;2.70;48.87;100186.55;104351;1279;99001;-79
2022/04/04 00:03:00;;;;;;;1.40;1.40;;;;;;;2.66;48.89;100185.48;104336;1278;138049;-80
2022/04/04 00:05:27;;;;;;;1.40;1.40;;;;;;;2.67;49.05;100184.42;104203;1280;95866;-78
2022/04/04 00:07:56;;;;;;;1.30;1.30;;;;;;;2.68;48.79;100183.21;104143;1279;137979;-79
2022/04/04 00:10:24;;;;;;;1.30;1.30;;;;;;;2.70;48.74;100181.12;104237;1279;109340;-77
2022/04/04 00:12:52;;;;;;;1.40;1.40;;;;;;;2.73;48.67;100182.87;104332;1279;100659;-79
2022/04/04 00:15:21;;;;;;;1.30;1.30;;;;;;;2.76;48.89;100183.05;104117;1278;138019;-79
2022/04/04 00:17:49;;;;;;;1.40;1.40;;;;;;;2.69;48.68;100177.42;104152;1279;95780;-78
2022/04/04 00:20:17;;;;;;;1.50;1.50;;;;;;;2.65;48.66;100174.96;104192;1278;138149;-78
2022/04/04 00:22:46;;;;;;;1.60;1.60;;;;;;;2.62;48.66;100172.67;104177;1279;109511;-78
2022/04/04 00:25:14;;;;;;;1.30;1.30;;;;;;;2.62;48.49;100175.14;104270;1279;97662;-80
2022/04/04 00:27:42;;;;;;;1.40;1.40;;;;;;;2.64;48.83;100175.66;104198;1278;137745;-78
2022/04/04 00:30:11;;;;;;;1.40;1.40;;;;;;;2.61;48.81;100173.20;104160;1279;95733;-77
2022/04/04 00:32:39;;;;;;;1.50;1.50;;;;;;;2.61;48.45;100176.00;104008;1279;138184;-78
2022/04/04 00:35:07;;;;;;;1.50;1.50;;;;;;;2.56;48.36;100174.95;104082;1280;108669;-78
2022/04/04 00:37:37;;;;;;;1.40;1.40;;;;;;;2.58;48.72;100174.42;104258;1279;138562;-78
2022/04/04 00:40:07;;;;;;;1.50;1.50;;;;;;;2.52;48.21;100169.85;104015;1279;108842;-79
2022/04/04 00:42:35;;;;;;;1.30;1.30;;;;;;;2.45;48.64;100167.55;104041;1279;95712;-79
2022/04/04 00:45:03;;;;;;;1.30;1.30;;;;;;;2.42;48.68;100164.55;104009;1279;137877;-80
2022/04/04 00:47:32;;;;;;;1.40;1.40;;;;;;;2.41;48.69;100155.80;104267;1279;109802;-78
2022/04/04 00:50:01;;;;;;;1.40;1.40;;;;;;;2.36;48.43;100156.13;104119;1280;138386;-78
2022/04/04 00:52:30;;;;;;;1.60;1.60;;;;;;;2.36;48.65;100151.59;104184;1279;107440;-79
2022/04/04 00:54:58;;;;;;;1.40;1.40;;;;;;;2.33;48.45;100153.67;104232;1279;97071;-79
2022/04/04 00:57:27;;;;;;;1.50;1.50;;;;;;;2.33;48.30;100155.41;103999;1281;137758;-78
2022/04/04 00:59:56;;;;;;;1.60;1.60;;;;;;;2.32;48.39;100150.70;104269;1278;108860;-79
2022/04/04 01:02:24;;;;;;;1.60;1.60;;;;;;;2.28;47.95;100155.41;104246;1279;137944;-79
2022/04/04 01:04:52;;;;;;;1.50;1.50;;;;;;;2.27;48.07;100149.10;104144;1279;108044;-79
2022/04/04 01:07:20;;;;;;;1.40;1.40;;;;;;;2.27;48.02;100149.80;104280;1276;95690;-79
2022/04/04 01:09:48;;;;;;;1.50;1.50;;;;;;;2.20;47.44;100151.17;104072;1279;137771;-78
2022/04/04 01:12:16;;;;;;;1.70;1.70;;;;;;;2.14;47.59;100152.72;104282;1276;108858;-79
2022/04/04 01:14:48;;;;;;;1.60;1.60;;;;;;;2.06;47.53;100144.46;103987;1279;137984;-78
2022/04/04 01:17:18;;;;;;;1.50;1.50;;;;;;;2.01;47.49;100142.33;104315;1276;107552;-78
2022/04/04 01:19:46;;;;;;;1.50;1.50;;;;;;;1.96;47.82;100138.11;103995;1280;138574;-79
2022/04/04 01:22:15;;;;;;;1.50;1.50;;;;;;;1.91;47.42;100137.21;104412;1279;95561;-78
2022/04/04 01:24:43;;;;;;;1.70;1.70;;;;;;;1.86;47.41;100132.82;104041;1280;108765;-76
2022/04/04 01:27:11;;;;;;;1.50;1.50;;;;;;;1.84;47.57;100132.98;103838;1279;295635;-78
2022/04/04 01:29:40;;;;;;;1.60;1.60;;;;;;;1.87;47.53;100133.70;103952;1277;108514;-78
2022/04/04 01:32:08;;;;;;;1.60;1.60;;;;;;;1.83;47.65;100131.06;104132;1279;138317;-79
2022/04/04 01:34:38;;;;;;;1.50;1.50;;;;;;;1.82;47.66;100127.70;104287;1279;96182;-78
2022/04/04 01:37:07;;;;;;;1.50;1.50;;;;;;;1.81;47.95;100121.95;104274;1276;108443;-79
2022/04/04 01:39:35;;;;;;;1.60;1.60;;;;;;;1.81;47.90;100122.80;104088;1279;138143;-78
2022/04/04 01:42:04;;;;;;;1.60;1.60;;;;;;;1.79;48.01;100121.91;104011;1281;106657;-78
2022/04/04 01:44:33;;;;;;;1.50;1.50;;;;;;;1.77;47.84;100121.21;104133;1279;138232;-78
2022/04/04 01:47:02;;;;;;;1.50;1.50;;;;;;;1.75;48.18;100118.93;104324;1279;96052;-79
2022/04/04 01:49:30;;;;;;;1.60;1.60;;;;;;;1.79;48.42;100114.58;104186;1279;137910;-79
2022/04/04 01:51:58;;;;;;;1.70;1.70;;;;;;;1.75;47.98;100113.33;104353;1277;97275;-79
2022/04/04 01:54:27;;;;;;;1.70;1.70;;;;;;;1.67;48.20;100106.29;104274;1279;107546;-79
2022/04/04 01:57:06;;;;;;;1.60;1.60;;;;;;;1.57;48.37;100105.54;104525;1278;137942;-80
2022/04/04 01:59:34;;;;;;;1.50;1.50;;;;;;;1.52;48.28;100099.73;104785;1279;95135;-79
2022/04/04 02:02:02;;;;;;;1.80;1.80;;;;;;;1.47;48.50;100094.29;103989;1279;138517;-79
2022/04/04 02:04:31;;;;;;;1.60;1.60;;;;;;;1.47;48.97;100087.29;103914;1279;98837;-79
2022/04/04 02:06:59;;;;;;;1.60;1.60;;;;;;;1.45;48.47;100084.83;104262;1276;106589;-77
2022/04/04 02:09:27;;;;;;;1.60;1.60;;;;;;;1.42;48.78;100083.92;103947;1279;138198;-79
2022/04/04 02:11:55;;;;;;;1.60;1.60;;;;;;;1.42;48.93;100089.88;104225;1279;95825;-78
2022/04/04 02:14:23;;;;;;;1.70;1.70;;;;;;;1.41;48.78;100082.52;104203;1277;138208;-79
2022/04/04 02:16:51;;;;;;;1.60;1.60;;;;;;;1.36;48.69;100083.90;104365;1278;98306;-78
2022/04/04 02:19:19;;;;;;;1.80;1.80;;;;;;;1.35;49.08;100081.98;104225;1279;108138;-79
2022/04/04 02:21:47;;;;;;;1.70;1.70;;;;;;;1.33;49.03;100080.91;104085;1278;137855;-78
2022/04/04 02:24:15;;;;;;;2.00;2.00;;;;;;;1.34;48.67;100077.59;104156;1279;96150;-78
2022/04/04 02:26:44;;;;;;;1.80;1.80;;;;;;;1.36;49.23;100072.70;104006;1280;137740;-78
2022/04/04 02:29:12;;;;;;;1.70;1.70;;;;;;;1.30;48.73;100072.14;104289;1277;96922;-80
2022/04/04 02:31:41;;;;;;;1.80;1.80;;;;;;;1.27;49.18;100069.15;104048;1279;138261;-77
2022/04/04 02:34:10;;;;;;;1.60;1.60;;;;;;;1.26;48.79;100071.06;104205;1279;95795;-78
2022/04/04 02:36:38;;;;;;;1.60;1.60;;;;;;;1.24;48.64;100068.60;103975;1280;96156;-79
2022/04/04 02:39:06;;;;;;;1.60;1.60;;;;;;;1.24;48.95;100068.42;104006;1279;138964;-78
2022/04/04 02:41:34;;;;;;;1.60;1.60;;;;;;;1.21;49.11;100064.74;104094;1279;98936;-78
2022/04/04 02:44:05;;;;;;;1.70;1.70;;;;;;;1.16;49.27;100058.77;104052;1279;137927;-78
2022/04/04 02:46:35;;;;;;;1.80;1.80;;;;;;;1.19;49.31;100057.21;104123;1279;95428;-79
2022/04/04 02:49:04;;;;;;;1.70;1.70;;;;;;;1.16;49.14;100052.64;104217;1277;95654;-78
2022/04/04 02:51:35;;;;;;;1.70;1.70;;;;;;;1.17;49.25;100053.35;104067;1279;138010;-79
2022/04/04 02:54:03;;;;;;;1.80;1.80;;;;;;;1.21;49.25;100050.73;104251;1278;98607;-78
2022/04/04 02:56:32;;;;;;;1.60;1.60;;;;;;;1.17;49.21;100047.23;104094;1279;138218;-78
2022/04/04 02:59:01;;;;;;;1.70;1.70;;;;;;;1.14;49.33;100041.61;104065;1279;95150;-77
2022/04/04 03:01:30;;;;;;;1.70;1.70;;;;;;;1.12;49.60;100044.21;104390;1278;138262;-78
2022/04/04 03:03:58;;;;;;;1.70;1.70;;;;;;;1.10;49.51;100042.81;104218;1276;108662;-78
2022/04/04 03:06:27;;;;;;;1.70;1.70;;;;;;;1.10;49.84;100041.42;104295;1277;98125;-78
2022/04/04 03:08:55;;;;;;;1.80;1.80;;;;;;;1.10;49.57;100046.31;104043;1279;138160;-77
2022/04/04 03:11:23;;;;;;;1.80;1.80;;;;;;;1.09;49.87;100042.10;104095;1279;96055;-77
2022/04/04 03:13:51;;;;;;;1.90;1.90;;;;;;;1.10;50.08;100045.79;104144;1278;138797;-79
2022/04/04 03:16:19;;;;;;;1.70;1.70;;;;;;;1.10;49.99;100044.20;104157;1279;108687;-78
2022/04/04 03:18:47;;;;;;;1.70;1.70;;;;;;;1.08;50.36;100044.38;104147;1279;98304;-78
2022/04/04 03:21:16;;;;;;;1.80;1.80;;;;;;;1.03;50.26;100038.40;103962;1279;138118;-77
2022/04/04 03:23:44;;;;;;;1.80;1.80;;;;;;;1.01;50.16;100041.18;104256;1279;95564;-77
2022/04/04 03:26:12;;;;;;;1.70;1.70;;;;;;;0.99;50.77;100039.25;104139;1279;138283;-78
2022/04/04 03:28:42;;;;;;;1.70;1.70;;;;;;;0.99;50.79;100036.29;104339;1277;106525;-78
2022/04/04 03:31:10;;;;;;;1.80;1.80;;;;;;;0.99;50.69;100037.86;104266;1277;98419;-79
2022/04/04 03:33:39;;;;;;;1.60;1.60;;;;;;;0.97;51.19;100035.21;103955;1277;138211;-78
2022/04/04 03:36:07;;;;;;;1.70;1.70;;;;;;;0.95;50.95;100033.45;104196;1279;95678;-79
2022/04/04 03:38:36;;;;;;;1.70;1.70;;;;;;;0.90;51.16;100028.00;103960;1281;138576;-78
2022/04/04 03:41:04;;;;;;;1.70;1.70;;;;;;;0.89;51.33;100030.63;104194;1278;106405;-78
2022/04/04 03:43:33;;;;;;;1.70;1.70;;;;;;;0.94;51.23;100032.55;104053;1281;138300;-77
2022/04/04 03:46:01;;;;;;;1.80;1.80;;;;;;;1.00;51.56;100030.86;104184;1279;105525;-79
2022/04/04 03:48:29;;;;;;;1.90;1.90;;;;;;;1.03;51.63;100031.58;104194;1278;95707;-78
2022/04/04 03:50:58;;;;;;;1.70;1.70;;;;;;;1.06;51.78;100032.65;104078;1279;138256;-78
2022/04/04 03:53:26;;;;;;;1.70;1.70;;;;;;;1.01;51.75;100025.27;104255;1278;106905;-79
2022/04/04 03:55:54;;;;;;;1.60;1.60;;;;;;;0.99;51.89;100024.91;104063;1280;139021;-77
2022/04/04 03:58:23;;;;;;;1.60;1.60;;;;;;;0.99;51.75;100026.31;104232;1278;105469;-75
2022/04/04 04:00:51;;;;;;;1.70;1.70;;;;;;;0.99;51.78;100024.58;104034;1281;95178;-78
2022/04/04 04:03:19;;;;;;;1.70;1.70;;;;;;;1.01;51.82;100025.61;104067;1278;138295;-79
2022/04/04 04:05:48;;;;;;;1.70;1.70;;;;;;;1.02;51.97;100021.44;104303;1278;108700;-78
2022/04/04 04:08:16;;;;;;;1.90;1.90;;;;;;;1.04;52.39;100014.98;104074;1278;138403;-78
2022/04/04 04:10:44;;;;;;;1.70;1.70;;;;;;;1.06;52.51;100016.56;104163;1277;109152;-78
2022/04/04 04:13:12;;;;;;;1.70;1.70;;;;;;;1.09;52.35;100014.65;104199;1278;95262;-77
2022/04/04 04:15:40;;;;;;;1.60;1.60;;;;;;;1.09;52.57;100018.84;104176;1277;138390;-79
2022/04/04 04:18:09;;;;;;;1.60;1.60;;;;;;;1.11;52.96;100011.70;104185;1278;108656;-78
2022/04/04 04:20:37;;;;;;;1.70;1.70;;;;;;;1.16;52.70;100014.17;104034;1278;139178;-78
2022/04/04 04:23:08;;;;;;;1.70;1.70;;;;;;;1.19;52.74;100007.02;103978;1280;107842;-79
2022/04/04 04:25:39;;;;;;;1.70;1.70;;;;;;;1.21;52.63;100006.16;104037;1281;138572;-78
2022/04/04 04:28:07;;;;;;;1.70;1.70;;;;;;;1.28;52.70;100010.58;104012;1281;95249;-79
2022/04/04 04:30:35;;;;;;;1.70;1.70;;;;;;;1.32;52.94;100016.89;104121;1278;109184;-78
2022/04/04 04:33:04;;;;;;;1.70;1.70;;;;;;;1.42;52.49;100014.13;103938;1281;138028;-78
2022/04/04 04:35:33;;;;;;;1.60;1.60;;;;;;;1.45;53.26;100015.37;104142;1278;107790;-78
2022/04/04 04:38:01;;;;;;;1.70;1.70;;;;;;;1.41;52.73;100015.35;103987;1278;138193;-77
2022/04/04 04:40:29;;;;;;;1.70;1.70;;;;;;;1.44;53.10;100011.69;104112;1280;95360;-78
2022/04/04 04:42:58;;;;;;;1.70;1.70;;;;;;;1.43;53.17;100008.73;104178;1278;109255;-79
2022/04/04 04:45:29;;;;;;;1.90;1.90;;;;;;;1.44;53.47;100015.20;104093;1281;138746;-79
2022/04/04 04:47:57;;;;;;;1.70;1.70;;;;;;;1.42;53.50;100010.29;104146;1281;107903;-78
2022/04/04 04:50:26;;;;;;;1.70;1.70;;;;;;;1.43;53.26;100009.95;104130;1277;138278;-79
2022/04/04 04:52:55;;;;;;;1.70;1.70;;;;;;;1.44;53.81;100006.63;104172;1279;95149;-76
2022/04/04 04:55:25;;;;;;;1.70;1.70;;;;;;;1.45;53.90;100001.73;104157;1278;109439;-78
2022/04/04 04:57:55;;;;;;;1.60;1.60;;;;;;;1.49;53.97;100005.07;104118;1279;138846;-79
2022/04/04 05:00:27;;;;;;;1.60;1.60;;;;;;;1.48;54.34;100007.67;104356;1279;107547;-79
2022/04/04 05:05:43;;;;;;;1.60;1.60;;;;;;;1.50;54.42;100005.42;104179;1278;95250;-78
2022/04/04 05:08:12;;;;;;;1.60;1.60;;;;;;;1.54;54.13;100002.30;103968;1278;138107;-78
2022/04/04 05:10:40;;;;;;;1.60;1.60;;;;;;;1.61;54.75;100014.73;104282;1278;97269;-78
2022/04/04 05:13:09;;;;;;;1.50;1.50;;;;;;;1.69;54.32;100011.96;104095;1280;107829;-76
2022/04/04 05:15:38;;;;;;;1.60;1.60;;;;;;;1.76;54.48;100013.40;104061;1278;137934;-76
2022/04/04 05:18:08;;;;;;;1.50;1.50;;;;;;;1.77;54.34;100016.38;104259;1278;95345;-76
2022/04/04 05:20:37;;;;;;;1.60;1.60;;;;;;;1.74;54.50;100014.79;103887;1278;137766;-79
2022/04/04 05:23:05;;;;;;;1.60;1.60;;;;;;;1.75;54.92;100013.92;104097;1281;98427;-77
2022/04/04 05:25:33;;;;;;;1.40;1.40;;;;;;;1.82;54.83;100025.84;103902;1277;138251;-77
2022/04/04 05:28:02;;;;;;;1.40;1.40;;;;;;;1.89;55.38;100024.12;104137;1278;95354;-78
2022/04/04 05:30:30;;;;;;;1.40;1.40;;;;;;;1.92;55.62;100019.91;104270;1277;95124;-77
2022/04/04 05:32:59;;;;;;;1.40;1.40;;;;;;;1.98;55.90;100020.45;104146;1277;138146;-77
2022/04/04 05:35:29;;;;;;;1.40;1.40;;;;;;;2.00;56.27;100014.70;104346;1277;98321;-80
2022/04/04 05:37:57;;;;;;;1.60;1.60;;;;;;;1.96;58.53;100020.98;103942;1280;138424;-78
2022/04/04 05:40:25;;;;;;;1.40;1.40;;;;;;;1.92;60.21;100018.70;104211;1280;95448;-78
2022/04/04 05:42:54;;;;;;;1.30;1.30;;;;;;;1.98;61.16;100016.95;104189;1280;95740;-79
2022/04/04 05:45:22;;;;;;;1.40;1.40;;;;;;;2.02;61.62;100011.37;104158;1279;137842;-78
2022/04/04 05:47:52;;;;;;;1.40;1.40;;;;;;;2.12;61.27;100011.38;104352;1278;97336;-79
2022/04/04 05:50:21;;;;;;;1.30;1.30;;;;;;;2.17;61.60;100010.16;104234;1278;138447;-77
2022/04/04 05:52:48;;;;;;;1.40;1.40;;;;;;;2.25;60.83;100003.70;104319;1278;95241;-78
2022/04/04 05:55:17;;;;;;;1.30;1.30;;;;;;;2.33;60.37;100004.41;103954;1281;96011;-78
2022/04/04 05:57:47;;;;;;;1.50;1.50;;;;;;;2.32;60.38;100004.76;104039;1277;138328;-79
2022/04/04 06:00:17;;;;;;;1.40;1.40;;;;;;;2.25;60.45;100007.04;104277;1278;98842;-79
2022/04/04 06:02:47;;;;;;;1.50;1.50;;;;;;;2.20;60.65;100005.80;103876;1281;138274;-78
2022/04/04 06:05:15;;;;;;;1.40;1.40;;;;;;;2.24;60.63;100004.74;104079;1281;95229;-79
2022/04/04 06:07:43;;;;;;;1.40;1.40;;;;;;;2.25;60.33;100001.59;104130;1278;138267;-78
2022/04/04 06:10:13;;;;;;;1.30;1.30;;;;;;;2.26;60.40;99998.27;104127;1278;108725;-78
2022/04/04 06:12:43;;;;;;;1.30;1.30;;;;;;;2.36;60.73;99999.69;104183;1280;98088;-79
2022/04/04 06:15:12;;;;;;;1.40;1.40;;;;;;;2.43;60.44;99999.50;103907;1278;138063;-78
2022/04/04 06:17:41;;;;;;;1.30;1.30;;;;;;;2.56;60.52;100006.17;104173;1277;95313;-78
2022/04/04 06:20:10;;;;;;;1.30;1.30;;;;;;;2.64;60.32;100005.48;104196;1280;138434;-78
2022/04/04 06:22:39;;;;;;;1.20;1.20;;;;;;;2.61;60.80;100006.17;104137;1278;108765;-80
2022/04/04 06:25:09;;;;;;;1.30;1.30;;;;;;;2.49;62.16;100007.22;104163;1281;96731;-78
2022/04/04 06:27:37;;;;;;;1.20;1.20;;;;;;;2.45;62.91;100001.27;103872;1281;138599;-78
2022/04/04 06:30:07;;;;;;;1.20;1.20;;;;;;;2.49;62.63;100000.56;104035;1281;97112;-78
2022/04/04 06:32:35;;;;;;;1.20;1.20;;;;;;;2.51;62.81;100006.52;103923;1278;138272;-78
2022/04/04 06:35:05;;;;;;;1.40;1.40;;;;;;;2.46;63.98;100008.29;104194;1278;108690;-78
2022/04/04 06:37:33;;;;;;;1.30;1.30;;;;;;;2.41;65.01;100003.54;104046;1277;138433;-78
2022/04/04 06:40:02;;;;;;;1.20;1.20;;;;;;;2.44;64.54;99999.86;104123;1280;107851;-77
2022/04/04 06:42:38;;;;;;;1.20;1.20;;;;;;;2.52;64.96;100002.84;104047;1281;95715;-78
2022/04/04 06:45:08;;;;;;;1.20;1.20;;;;;;;2.48;64.42;99998.30;104281;1277;137977;-78
2022/04/04 06:47:37;;;;;;;1.30;1.30;;;;;;;2.52;64.53;99996.19;104534;1278;108713;-78
2022/04/04 06:50:08;;;;;;;1.30;1.30;;;;;;;2.55;63.90;99996.89;104136;1278;138376;-78
2022/04/04 06:52:37;;;;;;;1.10;1.10;;;;;;;2.53;63.17;99990.92;104018;1278;106777;-78
2022/04/04 06:55:25;;;;;;;1.20;1.20;;;;;;;2.48;63.31;99992.15;104319;1277;96079;-79
2022/04/04 06:57:54;;;;;;;1.20;1.20;;;;;;;2.52;63.30;99989.52;104057;1278;138183;-80
2022/04/04 07:00:23;;;;;;;1.30;1.30;;;;;;;2.67;62.99;99991.27;104194;1279;107274;-78
2022/04/04 07:02:53;;;;;;;1.20;1.20;;;;;;;2.85;62.41;99991.78;104041;1278;138548;-78
2022/04/04 07:05:24;;;;;;;1.20;1.20;;;;;;;2.86;61.73;99992.48;104168;1278;107792;-78
2022/04/04 07:07:53;;;;;;;1.20;1.20;;;;;;;2.86;61.71;99988.98;104012;1278;137912;-77
2022/04/04 07:10:21;;;;;;;1.30;1.30;;;;;;;2.88;61.47;99991.42;104291;1278;95350;-78
2022/04/04 07:12:50;;;;;;;1.20;1.20;;;;;;;2.89;61.41;99992.64;104258;1277;108593;-79
2022/04/04 07:15:18;;;;;;;1.10;1.10;;;;;;;2.96;61.60;99987.38;104048;1280;138842;-78
2022/04/04 07:17:46;;;;;;;1.20;1.20;;;;;;;2.98;61.27;99987.02;104252;1277;107254;-78
2022/04/04 07:20:15;;;;;;;1.30;1.30;;;;;;;3.05;61.77;99982.27;104066;1278;137923;-79
2022/04/04 07:22:43;;;;;;;1.20;1.20;;;;;;;3.07;61.27;99981.20;104187;1278;95201;-79
2022/04/04 07:25:14;;;;;;;1.20;1.20;;;;;;;3.21;61.10;99973.45;103987;1281;109090;-80
2022/04/04 07:27:45;;;;;;;1.10;1.10;;;;;;;3.41;60.75;99969.70;104053;1278;138878;-79
2022/04/04 07:30:19;;;;;;;1.00;1.00;;;;;;;3.43;60.67;99965.48;103961;1278;108716;-78
2022/04/04 07:32:48;;;;;;;1.10;1.10;;;;;;;3.60;60.60;99960.84;104120;1278;138291;-77
2022/04/04 07:35:18;;;;;;;1.10;1.10;;;;;;;3.79;60.18;99955.30;104160;1278;95226;-79
2022/04/04 07:37:47;;;;;;;1.10;1.10;;;;;;;4.13;59.81;99955.77;104304;1281;138560;-78
2022/04/04 07:40:17;;;;;;;1.00;1.00;;;;;;;4.45;59.26;99954.65;104001;1278;99680;-78
2022/04/04 07:42:45;;;;;;;1.00;1.00;;;;;;;4.50;58.02;99953.89;103969;1280;106420;-77
2022/04/04 07:45:15;;;;;;;1.20;1.20;;;;;;;4.54;58.03;99954.40;104055;1278;137210;-78
2022/04/04 07:47:45;;;;;;;0.90;0.90;;;;;;;4.73;57.90;99948.95;104191;1279;96032;-78
2022/04/04 07:50:14;;;;;;;1.00;1.00;;;;;;;4.85;57.61;99946.73;104094;1278;138525;-76
2022/04/04 07:52:42;;;;;;;1.00;1.00;;;;;;;4.94;56.89;99946.27;103925;1281;98309;-77
2022/04/04 07:55:10;;;;;;;0.90;0.90;;;;;;;4.89;56.94;99946.67;104167;1279;107929;-77
2022/04/04 07:57:39;;;;;;;1.10;1.10;;;;;;;4.92;57.00;99940.13;104322;1278;138266;-76
2022/04/04 08:00:14;;;;;;;1.00;1.00;;;;;;;5.01;56.89;99937.58;103960;1278;95380;-78
2022/04/04 08:02:43;;;;;;;0.90;0.90;;;;;;;5.00;56.71;99939.16;104068;1279;138727;-75
2022/04/04 08:05:12;;;;;;;0.90;0.90;;;;;;;5.09;56.19;99933.98;104239;1278;97213;-76
2022/04/04 08:07:43;;;;;;;0.90;0.90;;;;;;;5.24;56.03;99925.34;103923;1281;140635;-76
2022/04/04 08:10:11;;;;;;;0.80;0.80;;;;;;;5.44;56.08;99917.35;103922;1277;95730;-76
2022/04/04 08:12:40;;;;;;;0.90;0.90;;;;;;;5.65;54.87;99913.90;103954;1278;95687;-75
2022/04/04 08:15:10;;;;;;;0.90;0.90;;;;;;;5.88;54.71;99913.39;103851;1278;137904;-78
2022/04/04 08:17:38;;;;;;;0.90;0.90;;;;;;;6.04;54.35;99913.19;104243;1279;99140;-77
2022/04/04 08:20:08;;;;;;;0.80;0.80;;;;;;;6.13;53.72;99911.11;103972;1278;137880;-77
2022/04/04 08:22:42;;;;;;;0.90;0.90;;;;;;;6.13;53.52;99912.15;104103;1278;95762;-77
2022/04/04 08:25:11;;;;;;;0.90;0.90;;;;;;;6.10;52.84;99913.97;104152;1280;95225;-75
2022/04/04 08:27:41;;;;;;;0.80;0.80;;;;;;;6.14;53.03;99910.02;103963;1278;138009;-76
2022/04/04 08:30:12;;;;;;;0.80;0.80;;;;;;;6.27;52.80;99902.23;104063;1278;98717;-77
2022/04/04 08:32:41;;;;;;;0.80;0.80;;;;;;;6.44;52.33;99900.73;103936;1278;138098;-77
2022/04/04 08:35:11;;;;;;;0.80;0.80;;;;;;;6.56;52.17;99907.73;104109;1278;95957;-77
2022/04/04 08:37:41;;;;;;;0.80;0.80;;;;;;;6.66;51.98;99907.92;104151;1279;138423;-76
2022/04/04 08:40:12;;;;;;;0.80;0.80;;;;;;;6.59;51.48;99899.92;104268;1277;107373;-77
2022/04/04 08:42:41;;;;;;;0.80;0.80;;;;;;;6.67;51.79;99902.77;104270;1277;98459;-77
2022/04/04 08:45:09;;;;;;;0.80;0.80;;;;;;;6.67;51.53;99898.02;104028;1278;138092;-77
2022/04/04 08:47:39;;;;;;;0.70;0.70;;;;;;;6.67;51.37;99900.13;104113;1278;95188;-77
2022/04/04 08:50:09;;;;;;;0.70;0.70;;;;;;;6.70;51.54;99895.14;103980;1280;137958;-77
2022/04/04 08:52:39;;;;;;;0.80;0.80;;;;;;;6.83;50.97;99886.77;104112;1278;109207;-77
2022/04/04 08:55:08;;;;;;;0.70;0.70;;;;;;;6.90;50.83;99882.92;104118;1279;98180;-77
2022/04/04 08:57:36;;;;;;;0.70;0.70;;;;;;;7.02;50.48;99880.94;104067;1278;138608;-78
2022/04/04 09:00:10;;;;;;;0.70;0.70;;;;;;;7.11;50.60;99877.05;104132;1278;95839;-77
2022/04/04 09:03:02;;;;;;;0.70;0.70;;;;;;;7.06;50.01;99877.34;104063;1278;138668;-78
2022/04/04 09:05:35;;;;;;;0.60;0.60;;;;;;;7.20;49.97;99863.80;104300;1278;108668;-77
2022/04/04 09:08:07;;;;;;;0.60;0.60;;;;;;;7.35;50.01;99859.77;104077;1278;137920;-78
2022/04/04 09:10:37;;;;;;;0.60;0.60;;;;;;;7.31;49.79;99857.38;104195;1279;107752;-77
2022/04/04 09:13:06;;;;;;;0.70;0.70;;;;;;;7.33;49.28;99850.98;104329;1278;95631;-80
2022/04/04 09:16:02;;;;;;;0.80;0.80;;;;;;;7.35;49.65;99845.64;103999;1278;138126;-77
2022/04/04 09:18:43;;;;;;;0.70;0.70;;;;;;;8.04;47.88;99840.85;104280;1279;108794;-77
2022/04/04 09:21:37;;;;;;;0.60;0.60;;;;;;;8.02;47.33;99835.95;104163;1279;138361;-78
2022/04/04 09:24:09;;;;;;;0.60;0.60;;;;;;;7.95;47.85;99832.77;104315;1278;107666;-78
2022/04/04 09:26:43;;;;;;;0.60;0.60;;;;;;;7.91;48.03;99824.74;104163;1278;138072;-80
2022/04/04 09:29:16;;;;;;;0.60;0.60;;;;;;;8.04;47.56;99821.59;104348;1277;96532;-78
2022/04/04 09:31:59;;;;;;;0.90;0.90;;;;;;;8.01;47.36;99819.73;104082;1277;137690;-78
2022/04/04 09:34:57;;;;;;;0.50;0.50;;;;;;;9.60;45.59;99810.45;104170;1276;98296;-79
2022/04/04 09:37:26;;;;;;;0.40;0.40;;;;;;;9.98;43.30;99812.08;104170;1276;107856;-79
2022/04/04 09:40:20;;;;;;;0.40;0.40;;;;;;;9.62;43.49;99802.10;104123;1277;137603;-77
2022/04/04 09:42:53;;;;;;;0.50;0.50;;;;;;;9.18;44.11;99799.19;104218;1279;95265;-76
2022/04/04 09:45:24;;;;;;;0.50;0.50;;;;;;;8.91;44.86;99795.21;104090;1279;137747;-78
2022/04/04 09:47:59;;;;;;;0.50;0.50;;;;;;;9.23;44.39;99788.95;104332;1278;98180;-79
2022/04/04 09:50:43;;;;;;;0.50;0.50;;;;;;;9.23;45.04;99784.69;104343;1278;138115;-79
2022/04/04 09:53:19;;;;;;;0.50;0.50;;;;;;;10.12;43.39;99776.66;104330;1276;95560;-78
2022/04/04 09:56:02;;;;;;;0.50;0.40;;;;;;;10.44;42.75;99777.70;104414;1278;138089;-78
2022/04/04 09:58:32;;;;;;;0.40;0.40;;;;;;;9.87;42.60;99784.26;104324;1277;108750;-78
2022/04/04 10:01:01;;;;;;;0.50;0.40;;;;;;;9.40;43.42;99780.96;104299;1277;98322;-78
2022/04/04 10:03:31;;;;;;;0.40;0.40;;;;;;;9.66;43.29;99776.79;104056;1278;138549;-77
2022/04/04 10:06:09;;;;;;;0.50;0.40;;;;;;;9.50;43.38;99770.92;104214;1280;95197;-79
2022/04/04 10:08:38;;;;;;;0.40;0.40;;;;;;;9.48;43.65;99764.23;104211;1277;138006;-80
2022/04/04 10:11:09;;;;;;;0.40;0.40;;;;;;;9.64;43.37;99759.99;104264;1278;108688;-77
2022/04/04 10:13:38;;;;;;;0.50;0.50;;;;;;;9.86;43.00;99758.59;104498;1279;138579;-80
2022/04/04 10:16:07;;;;;;;0.50;0.40;;;;;;;9.77;42.83;99755.16;104532;1279;107872;-78
2022/04/04 10:18:38;;;;;;;0.40;0.40;;;;;;;9.41;43.14;99751.01;104159;1279;95261;-79
2022/04/04 10:21:08;;;;;;;0.50;0.50;;;;;;;9.28;43.59;99748.40;104001;1279;138032;-79
2022/04/04 10:23:37;;;;;;;0.40;0.40;;;;;;;10.38;41.91;99733.02;104106;1279;107886;-78
2022/04/04 10:26:16;;;;;;;0.50;0.40;;;;;;;10.12;42.17;99733.05;104097;1279;138468;-79
2022/04/04 10:28:46;;;;;;;0.40;0.40;;;;;;;9.73;42.64;99732.95;104128;1281;107752;-81
2022/04/04 10:31:20;;;;;;;0.40;0.40;;;;;;;9.94;42.38;99730.98;104156;1281;95237;-78
2022/04/04 10:33:53;;;;;;;0.40;0.40;;;;;;;9.47;42.84;99732.02;104004;1279;137621;-78
2022/04/04 10:36:23;;;;;;;0.50;0.40;;;;;;;9.22;43.60;99726.29;104224;1279;108680;-79
2022/04/04 10:38:54;;;;;;;0.50;0.40;;;;;;;9.43;44.09;99721.50;104178;1278;138027;-78
2022/04/04 10:41:27;;;;;;;0.50;0.40;;;;;;;9.97;42.61;99715.46;104252;1279;107933;-80
2022/04/04 10:43:56;;;;;;;0.50;0.40;;;;;;;9.61;42.15;99717.41;104099;1279;138127;-78
2022/04/04 10:46:26;;;;;;;0.50;0.50;;;;;;;9.35;42.99;99713.45;104064;1281;95261;-79
2022/04/04 10:49:03;;;;;;;0.60;0.60;;;;;;;9.18;43.65;99712.23;104149;1278;109125;-78
2022/04/04 10:51:34;;;;;;;0.50;0.50;;;;;;;9.01;44.03;99716.65;104076;1278;137813;-78
2022/04/04 10:54:09;;;;;;;0.50;0.50;;;;;;;9.13;43.66;99705.30;104180;1278;107826;-77
2022/04/04 10:56:39;;;;;;;0.50;0.50;;;;;;;9.26;43.26;99704.55;104159;1279;137775;-79
2022/04/04 10:59:19;;;;;;;0.50;0.50;;;;;;;9.37;43.30;99696.23;104287;1279;95151;-77
2022/04/04 11:01:56;;;;;;;0.50;0.50;;;;;;;9.48;43.28;99696.73;104239;1279;138163;-78
2022/04/04 11:04:34;;;;;;;0.50;0.50;;;;;;;9.42;42.69;99698.17;104306;1279;100283;-79
2022/04/04 11:09:55;;;;;;;0.50;0.50;;;;;;;9.20;43.23;99695.87;104209;1278;137681;-77
2022/04/04 11:12:28;;;;;;;0.50;0.50;;;;;;;9.08;43.01;99689.34;104320;1277;95841;-77
2022/04/04 11:15:13;;;;;;;0.50;0.50;;;;;;;8.99;42.92;99688.02;104169;1278;138660;-82
2022/04/04 11:18:00;;;;;;;0.50;0.50;;;;;;;8.86;43.68;99690.20;104112;1278;98354;-76
2022/04/04 11:20:33;;;;;;;0.50;0.50;;;;;;;8.67;43.47;99689.17;104251;1276;137761;-79
2022/04/04 11:23:08;;;;;;;0.50;0.50;;;;;;;8.54;44.52;99683.02;104691;1277;96315;-78
2022/04/04 11:25:48;;;;;;;0.50;0.50;;;;;;;8.35;44.86;99681.93;104056;1279;137788;-75
2022/04/04 11:28:18;;;;;;;0.50;0.50;;;;;;;8.30;45.07;99680.48;104198;1278;109288;-77
2022/04/04 11:30:53;;;;;;;0.60;0.60;;;;;;;8.27;44.93;99677.38;104197;1278;97153;-77
2022/04/04 11:33:22;;;;;;;0.60;0.60;;;;;;;8.25;44.90;99678.16;104047;1278;137805;-77
2022/04/04 11:35:52;;;;;;;0.50;0.50;;;;;;;8.18;44.39;99663.31;104154;1277;95362;-77
2022/04/04 11:38:22;;;;;;;0.60;0.60;;;;;;;8.17;44.85;99667.75;104021;1279;138157;-78
2022/04/04 11:40:55;;;;;;;0.60;0.60;;;;;;;8.17;44.99;99661.76;104080;1279;108701;-78
2022/04/04 11:43:27;;;;;;;0.60;0.60;;;;;;;8.23;45.14;99662.11;104257;1278;97201;-76